Time;durP1;ratioP1;P1;durP2;ratioP2;P2;SDS_P1;SDS_P2;PMS_P1;PMS_P2;Temp;Humidity;BMP_temperature;BMP_pressure;BME280_temperature;BME280_humidity;BME280_pressure;Samples;Min_cycle;Max_cycle;Signal;HPM_P1;HPM_P2
2023/09/09 00:02:08;;;;;;;7.15;6.45;;;;;;;21.61;58.85;97284.56;4879351;28;20043;-86
2023/09/09 00:04:33;;;;;;;8.13;7.32;;;;;;;21.55;59.05;97282.38;4916581;28;21049;-86
2023/09/09 00:07:02;;;;;;;7.68;6.90;;;;;;;21.64;59.40;97304.34;4891736;28;20227;-86
2023/09/09 00:09:32;;;;;;;7.80;6.80;;;;;;;21.55;59.75;97291.09;4890321;28;20293;-86
2023/09/09 00:11:57;;;;;;;7.80;7.10;;;;;;;21.56;58.65;97295.31;4873531;28;20409;-85
2023/09/09 00:14:24;;;;;;;8.85;7.18;;;;;;;21.56;59.31;97302.47;4878790;28;20172;-86
2023/09/09 00:16:49;;;;;;;7.50;6.80;;;;;;;21.54;59.24;97304.66;4865248;28;20115;-86
2023/09/09 00:19:14;;;;;;;7.95;7.20;;;;;;;21.51;59.14;97298.13;4882035;28;20528;-86
2023/09/09 00:21:40;;;;;;;7.45;6.65;;;;;;;21.35;59.75;97276.56;4890069;28;20100;-86
2023/09/09 00:24:05;;;;;;;7.97;7.28;;;;;;;21.43;59.81;97291.69;4893299;28;20651;-86
2023/09/09 00:26:31;;;;;;;7.93;7.22;;;;;;;21.39;59.74;97285.47;4898910;28;20268;-86
2023/09/09 00:29:00;;;;;;;7.63;6.93;;;;;;;21.42;60.18;97295.44;4893300;28;20180;-85
2023/09/09 00:31:25;;;;;;;7.07;6.40;;;;;;;21.29;60.09;97278.59;4880152;28;20719;-86
2023/09/09 00:33:52;;;;;;;7.78;7.07;;;;;;;21.36;60.10;97299.31;4879001;28;20163;-86
2023/09/09 00:36:17;;;;;;;7.80;7.07;;;;;;;21.14;60.04;97263.94;4881501;28;20641;-86
2023/09/09 00:38:42;;;;;;;8.02;7.32;;;;;;;21.33;59.82;97297.28;4877214;28;20199;-85
2023/09/09 00:41:09;;;;;;;7.55;6.82;;;;;;;21.33;60.14;97289.34;4889161;28;20189;-86
2023/09/09 00:43:37;;;;;;;7.60;6.90;;;;;;;21.30;60.10;97300.56;4911595;28;20273;-86
2023/09/09 00:46:03;;;;;;;7.32;6.63;;;;;;;21.31;60.21;97296.84;4879504;28;20222;-85
2023/09/09 00:48:29;;;;;;;7.50;6.80;;;;;;;21.29;59.95;97286.56;4887440;28;20267;-87
2023/09/09 00:50:55;;;;;;;7.22;6.53;;;;;;;21.35;60.47;97292.47;4914416;28;20222;-87
2023/09/09 00:53:21;;;;;;;7.65;6.95;;;;;;;21.30;59.94;97293.41;4898120;28;20224;-87
2023/09/09 00:55:46;;;;;;;8.00;7.30;;;;;;;21.25;60.37;97292.78;4915729;28;20253;-87
2023/09/09 00:58:12;;;;;;;7.80;7.00;;;;;;;21.26;59.91;97299.63;4893320;28;20171;-87
2023/09/09 01:00:38;;;;;;;7.35;6.65;;;;;;;21.09;59.68;97281.84;4897488;28;20192;-87
2023/09/09 01:03:05;;;;;;;7.75;6.82;;;;;;;21.16;60.00;97297.28;4905250;28;20187;-87
2023/09/09 01:05:31;;;;;;;6.70;6.10;;;;;;;21.18;59.75;97297.75;4898326;28;20084;-87
2023/09/09 01:07:57;;;;;;;7.63;6.93;;;;;;;21.11;59.75;97293.72;4894750;28;20241;-87
2023/09/09 01:10:23;;;;;;;7.63;6.90;;;;;;;21.10;60.13;97297.44;4897701;28;20240;-87
2023/09/09 01:12:50;;;;;;;7.20;6.57;;;;;;;21.11;60.07;97292.91;4931026;28;20200;-86
2023/09/09 01:15:15;;;;;;;8.30;7.50;;;;;;;20.92;60.16;97269.38;4898143;28;20178;-87
2023/09/09 01:17:41;;;;;;;7.32;6.63;;;;;;;20.94;59.91;97275.94;4886727;28;20327;-85
2023/09/09 01:20:14;;;;;;;8.32;7.07;;;;;;;21.06;60.43;97285.91;4886015;28;20371;-85
2023/09/09 01:22:50;;;;;;;7.93;7.22;;;;;;;21.06;60.27;97280.63;4878212;28;20362;-86
2023/09/09 01:25:16;;;;;;;8.13;7.30;;;;;;;20.97;61.09;97294.94;4908223;28;20111;-85
2023/09/09 01:27:42;;;;;;;7.93;7.22;;;;;;;20.89;61.01;97286.66;4881866;28;20211;-86
2023/09/09 01:30:08;;;;;;;8.73;7.72;;;;;;;20.88;60.71;97279.03;4893907;28;20218;-86
2023/09/09 01:32:34;;;;;;;7.53;6.82;;;;;;;20.90;60.98;97288.22;4895608;28;20031;-85
2023/09/09 01:35:04;;;;;;;7.40;6.70;;;;;;;20.88;60.92;97286.97;4876996;28;20202;-86
2023/09/09 01:37:30;;;;;;;8.23;7.43;;;;;;;20.84;60.71;97283.41;4891483;28;20188;-86
2023/09/09 01:39:56;;;;;;;7.55;6.75;;;;;;;20.81;60.55;97284.78;4896322;28;20242;-86
2023/09/09 01:42:21;;;;;;;7.75;6.95;;;;;;;20.80;60.62;97293.03;4880295;28;20682;-85
2023/09/09 01:44:47;;;;;;;7.60;6.90;;;;;;;20.73;60.80;97277.59;4894048;28;20261;-86
2023/09/09 01:47:15;;;;;;;7.40;6.70;;;;;;;20.71;60.63;97285.84;4914354;28;20213;-86
2023/09/09 01:49:41;;;;;;;8.52;7.72;;;;;;;20.71;60.69;97288.47;4883844;28;20210;-86
2023/09/09 01:52:07;;;;;;;7.88;7.18;;;;;;;20.68;60.98;97290.97;4883105;28;20513;-86
2023/09/09 01:54:33;;;;;;;7.55;6.85;;;;;;;20.63;60.94;97281.31;4882769;28;20260;-85
2023/09/09 01:56:59;;;;;;;8.07;7.28;;;;;;;20.57;61.15;97282.50;4886188;28;20216;-87
2023/09/09 01:59:25;;;;;;;7.93;7.13;;;;;;;20.58;61.34;97286.72;4916158;28;20115;-87
2023/09/09 02:01:50;;;;;;;8.60;7.72;;;;;;;20.47;61.56;97280.91;4894463;28;20225;-87
2023/09/09 02:04:15;;;;;;;7.68;6.97;;;;;;;20.43;61.83;97287.91;4916710;28;20171;-87
2023/09/09 02:06:42;;;;;;;8.80;7.70;;;;;;;20.42;61.97;97293.50;4901022;28;20234;-87
2023/09/09 02:09:07;;;;;;;12.68;8.02;;;;;;;20.40;61.67;97284.00;4914389;28;20182;-87
2023/09/09 02:11:32;;;;;;;7.75;7.05;;;;;;;20.42;61.60;97285.56;4909941;28;20711;-87
2023/09/09 02:13:58;;;;;;;7.97;7.25;;;;;;;20.28;61.09;97267.94;4899976;28;20178;-87
2023/09/09 02:16:24;;;;;;;8.02;7.15;;;;;;;20.32;61.37;97278.69;4897052;28;20282;-87
2023/09/09 02:18:49;;;;;;;8.20;7.43;;;;;;;20.37;61.65;97286.47;4915511;28;20232;-87
2023/09/09 02:21:14;;;;;;;8.45;7.63;;;;;;;20.22;62.09;97269.16;4916924;28;20178;-87
2023/09/09 02:23:41;;;;;;;7.80;7.10;;;;;;;20.38;61.63;97286.16;4902667;28;20250;-87
2023/09/09 02:26:06;;;;;;;8.73;7.85;;;;;;;20.26;62.55;97275.41;4909346;28;20230;-87
2023/09/09 02:28:32;;;;;;;8.98;8.05;;;;;;;20.36;61.70;97285.69;4930160;28;20104;-87
2023/09/09 02:30:59;;;;;;;9.68;7.85;;;;;;;20.39;62.11;97292.22;4911131;28;20633;-87
2023/09/09 02:33:28;;;;;;;8.90;8.00;;;;;;;20.36;62.13;97293.63;4903456;28;20135;-87
2023/09/09 02:35:53;;;;;;;9.05;8.23;;;;;;;20.40;62.36;97291.94;4902150;28;20143;-87
2023/09/09 02:38:19;;;;;;;8.40;7.70;;;;;;;20.39;62.31;97290.38;4897143;28;20342;-87
2023/09/09 02:40:44;;;;;;;8.10;7.40;;;;;;;20.32;62.06;97289.25;4917829;28;20220;-86
2023/09/09 02:43:10;;;;;;;8.48;7.57;;;;;;;20.37;62.00;97297.84;4906192;28;20652;-87
2023/09/09 02:45:37;;;;;;;8.85;7.82;;;;;;;20.28;61.84;97280.38;4897530;28;20245;-86
2023/09/09 02:48:03;;;;;;;8.45;7.68;;;;;;;20.27;61.84;97276.16;4891343;28;20244;-86
2023/09/09 02:50:29;;;;;;;8.43;7.55;;;;;;;20.36;62.46;97296.28;4908173;28;20172;-87
2023/09/09 02:52:54;;;;;;;8.95;8.15;;;;;;;20.32;61.56;97289.25;4928465;28;20210;-87
2023/09/09 02:55:19;;;;;;;9.38;7.70;;;;;;;20.36;62.40;97291.00;4932334;28;20191;-87
2023/09/09 02:57:51;;;;;;;8.52;7.72;;;;;;;20.39;61.76;97290.38;4916308;28;20178;-87
2023/09/09 03:00:16;;;;;;;8.15;7.45;;;;;;;20.34;61.87;97289.72;4900985;28;20241;-87
2023/09/09 03:02:42;;;;;;;8.32;7.60;;;;;;;20.31;61.86;97285.06;4903778;28;20097;-87
2023/09/09 03:05:08;;;;;;;8.30;7.57;;;;;;;20.23;62.21;97281.28;4918566;28;20302;-87
2023/09/09 03:07:34;;;;;;;8.82;8.02;;;;;;;20.29;62.22;97287.22;4901715;28;20162;-87
2023/09/09 03:09:59;;;;;;;8.45;7.65;;;;;;;20.22;62.32;97279.75;4899061;28;20284;-85
2023/09/09 03:12:24;;;;;;;9.00;8.10;;;;;;;20.18;62.84;97284.06;4896497;28;20202;-85
2023/09/09 03:14:50;;;;;;;9.38;7.97;;;;;;;20.16;62.61;97284.34;4898209;28;20284;-86
2023/09/09 03:17:17;;;;;;;8.43;7.68;;;;;;;20.21;62.47;97288.75;4881229;28;20442;-86
2023/09/09 03:19:43;;;;;;;7.80;7.00;;;;;;;20.19;62.77;97290.91;4880906;28;20398;-85
2023/09/09 03:22:08;;;;;;;8.75;7.45;;;;;;;20.10;62.42;97275.03;4913158;28;20088;-86
2023/09/09 03:24:33;;;;;;;7.90;7.10;;;;;;;20.14;62.22;97283.13;4894931;28;20221;-85
2023/09/09 03:26:59;;;;;;;7.47;6.78;;;;;;;20.12;62.14;97283.41;4878124;28;20500;-85
2023/09/09 03:29:24;;;;;;;8.65;7.85;;;;;;;20.12;62.47;97282.66;4896444;28;20197;-85
2023/09/09 03:31:50;;;;;;;8.38;7.50;;;;;;;20.11;62.34;97278.44;4878941;28;20229;-85
2023/09/09 03:34:15;;;;;;;8.05;7.25;;;;;;;20.11;62.32;97291.66;4870217;28;20278;-86
2023/09/09 03:36:42;;;;;;;7.80;7.10;;;;;;;20.03;62.74;97279.94;4875488;28;20659;-85
2023/09/09 03:39:08;;;;;;;8.30;7.50;;;;;;;20.04;63.01;97283.38;4879544;28;20723;-85
2023/09/09 03:41:33;;;;;;;8.40;7.60;;;;;;;20.04;63.36;97280.72;4908961;28;20194;-85
2023/09/09 03:43:59;;;;;;;8.63;7.82;;;;;;;20.02;62.95;97278.41;4865196;28;20251;-86
2023/09/09 03:46:27;;;;;;;8.27;7.47;;;;;;;19.91;63.35;97263.88;4892171;28;20088;-86
2023/09/09 03:48:53;;;;;;;8.27;7.47;;;;;;;19.97;63.09;97283.81;4885585;28;20168;-85
2023/09/09 03:51:19;;;;;;;8.25;7.55;;;;;;;19.93;63.11;97277.53;4891633;28;20220;-85
2023/09/09 03:53:45;;;;;;;8.10;7.40;;;;;;;19.97;62.85;97284.56;4875375;28;20367;-85
2023/09/09 03:56:10;;;;;;;8.63;7.82;;;;;;;19.97;63.48;97289.88;4878840;28;20409;-85
2023/09/09 03:58:36;;;;;;;7.95;6.88;;;;;;;19.82;63.17;97258.53;4880359;28;20197;-85
2023/09/09 04:01:06;;;;;;;8.27;7.47;;;;;;;20.01;63.54;97282.91;4895732;28;20213;-86
2023/09/09 04:03:35;;;;;;;9.13;7.95;;;;;;;19.79;63.21;97264.41;4873247;28;20231;-85
2023/09/09 04:06:08;;;;;;;8.27;7.47;;;;;;;19.97;63.52;97284.56;4880540;28;20333;-85
2023/09/09 04:08:35;;;;;;;8.77;7.97;;;;;;;19.91;63.51;97291.09;4891562;28;20360;-85
2023/09/09 04:11:01;;;;;;;8.30;7.50;;;;;;;19.89;62.96;97293.22;4909903;28;20316;-85
2023/09/09 04:13:27;;;;;;;7.85;7.05;;;;;;;19.88;63.23;97293.53;4895164;28;20730;-86
2023/09/09 04:15:53;;;;;;;8.75;7.85;;;;;;;19.89;63.30;97295.09;4881347;28;20201;-85
2023/09/09 04:18:19;;;;;;;8.45;7.65;;;;;;;19.76;63.27;97286.94;4881381;28;20111;-85
2023/09/09 04:20:45;;;;;;;8.50;7.57;;;;;;;19.83;63.06;97289.16;4896502;28;20193;-85
2023/09/09 04:23:10;;;;;;;8.35;7.20;;;;;;;19.74;62.50;97281.19;4878759;28;20594;-85
2023/09/09 04:25:36;;;;;;;8.30;7.50;;;;;;;19.83;63.57;97289.94;4872964;28;20297;-85
2023/09/09 04:28:01;;;;;;;8.18;7.38;;;;;;;19.84;63.06;97290.72;4894087;28;20155;-85
2023/09/09 04:30:26;;;;;;;8.48;7.63;;;;;;;19.75;63.33;97281.97;4896537;28;20218;-85
2023/09/09 04:32:52;;;;;;;8.55;7.72;;;;;;;19.63;63.35;97269.25;4880939;28;20186;-85
2023/09/09 04:35:17;;;;;;;8.88;7.57;;;;;;;19.75;62.98;97292.53;4879101;28;20375;-85
2023/09/09 04:37:43;;;;;;;9.32;8.43;;;;;;;19.76;63.33;97288.81;4880875;28;20188;-85
2023/09/09 04:40:10;;;;;;;8.07;7.28;;;;;;;19.72;62.68;97279.88;4895159;28;20096;-86
2023/09/09 04:42:35;;;;;;;9.38;7.78;;;;;;;19.76;63.10;97291.47;4880527;28;20197;-85
2023/09/09 04:45:02;;;;;;;12.00;8.10;;;;;;;19.74;63.00;97291.75;4892097;28;20201;-85
2023/09/09 04:47:28;;;;;;;8.93;8.05;;;;;;;19.70;63.38;97282.81;4861526;28;20224;-86
2023/09/09 04:49:56;;;;;;;8.38;7.60;;;;;;;19.55;64.04;97264.69;4897005;28;20627;-86
2023/09/09 04:52:22;;;;;;;8.98;7.80;;;;;;;19.69;63.51;97293.69;4914289;28;20201;-86
2023/09/09 04:54:47;;;;;;;8.88;7.97;;;;;;;19.50;63.73;97265.63;4899982;28;20303;-86
2023/09/09 04:57:12;;;;;;;8.35;7.50;;;;;;;19.61;63.16;97277.50;4900858;28;20213;-87
2023/09/09 04:59:38;;;;;;;8.48;7.68;;;;;;;19.72;63.17;97301.03;4915797;28;20289;-87
2023/09/09 05:02:03;;;;;;;7.00;6.40;;;;;;;19.55;63.09;97267.34;4897691;28;20220;-87
2023/09/09 05:04:29;;;;;;;8.10;7.30;;;;;;;19.67;63.59;97288.69;4906063;28;20111;-86
2023/09/09 05:06:54;;;;;;;8.95;8.05;;;;;;;19.66;63.53;97295.09;4913566;28;20182;-86
2023/09/09 05:09:20;;;;;;;8.20;7.40;;;;;;;19.71;63.29;97300.25;4929400;28;20213;-86
2023/09/09 05:11:45;;;;;;;9.10;7.70;;;;;;;19.59;63.39;97274.38;4897503;28;20081;-86
2023/09/09 05:14:11;;;;;;;7.38;6.68;;;;;;;19.62;63.83;97284.34;4898397;28;20023;-86
2023/09/09 05:16:37;;;;;;;8.32;7.53;;;;;;;19.71;64.01;97294.97;4899754;28;20226;-86
2023/09/09 05:19:02;;;;;;;8.68;7.85;;;;;;;19.64;63.34;97281.41;4914360;28;20178;-86
2023/09/09 05:21:28;;;;;;;8.75;7.85;;;;;;;19.79;63.91;97304.03;4900654;28;20217;-86
2023/09/09 05:23:53;;;;;;;8.77;7.97;;;;;;;19.86;64.02;97306.25;4898839;28;20218;-86
2023/09/09 05:26:19;;;;;;;8.80;7.90;;;;;;;19.73;64.29;97295.44;4898743;28;20231;-86
2023/09/09 05:28:44;;;;;;;8.63;7.82;;;;;;;19.91;63.97;97312.22;4914213;28;20192;-86
2023/09/09 05:31:11;;;;;;;9.00;7.82;;;;;;;19.92;64.15;97313.78;4914241;28;20200;-86
2023/09/09 05:33:36;;;;;;;9.02;8.13;;;;;;;19.83;64.11;97295.22;4925092;28;20280;-86
2023/09/09 05:36:02;;;;;;;9.13;8.23;;;;;;;19.84;63.89;97290.72;4931444;28;20251;-86
2023/09/09 05:38:29;;;;;;;8.93;8.07;;;;;;;20.04;64.04;97320.38;4931123;28;20639;-86
2023/09/09 05:40:55;;;;;;;8.60;7.70;;;;;;;19.93;63.96;97290.75;4919077;28;20280;-86
2023/09/09 05:43:20;;;;;;;9.70;8.75;;;;;;;20.13;64.13;97324.63;4920131;28;20098;-86
2023/09/09 05:45:45;;;;;;;8.48;7.68;;;;;;;20.16;64.55;97312.66;4906850;28;20178;-86
2023/09/09 05:48:11;;;;;;;9.77;8.88;;;;;;;20.33;64.15;97322.56;4902712;28;20282;-86
2023/09/09 05:50:36;;;;;;;9.57;8.68;;;;;;;20.31;63.93;97314.94;4911490;28;20286;-86
2023/09/09 05:53:02;;;;;;;10.52;8.68;;;;;;;20.39;63.83;97310.75;4900068;28;20302;-86
2023/09/09 05:55:27;;;;;;;8.27;7.53;;;;;;;20.45;63.60;97320.13;4900966;28;20198;-86
2023/09/09 05:57:53;;;;;;;7.80;7.10;;;;;;;20.54;63.57;97314.84;4904545;28;20555;-86
2023/09/09 06:00:20;;;;;;;8.85;8.00;;;;;;;20.65;63.10;97320.69;4918170;28;20151;-86
2023/09/09 06:02:45;;;;;;;8.77;7.97;;;;;;;20.74;62.94;97324.91;4924075;28;20267;-86
2023/09/09 06:05:10;;;;;;;8.10;7.43;;;;;;;20.77;62.98;97321.66;4921946;28;20255;-86
2023/09/09 06:07:36;;;;;;;7.60;6.82;;;;;;;20.85;62.89;97311.41;4929593;28;20208;-86
2023/09/09 06:10:01;;;;;;;8.30;7.40;;;;;;;20.94;62.82;97320.16;4926379;28;20107;-86
2023/09/09 06:12:27;;;;;;;8.02;7.32;;;;;;;21.01;62.64;97322.34;4909313;28;20272;-86
2023/09/09 06:14:52;;;;;;;8.13;7.32;;;;;;;21.12;62.16;97320.97;4897294;28;20198;-86
2023/09/09 06:17:17;;;;;;;7.88;7.18;;;;;;;21.17;61.88;97318.16;4923974;28;20202;-86
2023/09/09 06:19:43;;;;;;;7.55;6.95;;;;;;;21.14;61.77;97308.19;4926495;28;20210;-86
2023/09/09 06:22:08;;;;;;;7.53;6.78;;;;;;;21.36;61.29;97325.81;4912190;28;20197;-86
2023/09/09 06:24:34;;;;;;;7.57;6.80;;;;;;;21.44;61.47;97332.22;4913755;28;20136;-86
2023/09/09 06:27:00;;;;;;;8.23;7.43;;;;;;;21.54;60.81;97336.44;4911484;28;20095;-86
2023/09/09 06:29:27;;;;;;;8.25;7.45;;;;;;;21.52;60.82;97312.91;4920011;28;20686;-86
2023/09/09 06:31:52;;;;;;;7.13;6.53;;;;;;;21.73;60.94;97339.56;4897432;28;20326;-86
2023/09/09 06:34:18;;;;;;;7.75;7.05;;;;;;;21.83;60.26;97336.59;4913610;28;20203;-86
2023/09/09 06:36:43;;;;;;;8.48;7.72;;;;;;;21.95;60.49;97341.28;4921279;28;20171;-86
2023/09/09 06:39:09;;;;;;;7.90;7.22;;;;;;;22.00;60.10;97337.66;4890989;28;20528;-85
2023/09/09 06:41:34;;;;;;;8.63;7.82;;;;;;;22.11;60.21;97338.88;4892906;28;20129;-85
2023/09/09 06:43:59;;;;;;;8.55;7.75;;;;;;;22.19;59.82;97335.44;4894691;28;20362;-84
2023/09/09 06:46:25;;;;;;;7.97;7.28;;;;;;;22.19;60.01;97330.16;4908462;28;20766;-84
2023/09/09 06:48:50;;;;;;;7.80;7.10;;;;;;;22.37;59.57;97338.06;4891958;28;20213;-85
2023/09/09 06:51:16;;;;;;;7.93;7.22;;;;;;;22.52;59.29;97348.16;4881087;28;20402;-85
2023/09/09 06:53:42;;;;;;;7.10;6.50;;;;;;;22.54;58.70;97327.41;4878974;28;20194;-85
2023/09/09 06:56:07;;;;;;;7.90;7.20;;;;;;;22.74;58.82;97341.03;4891646;28;20237;-85
2023/09/09 06:58:33;;;;;;;8.18;7.47;;;;;;;22.93;58.77;97354.69;4894505;28;20244;-85
2023/09/09 07:00:58;;;;;;;8.18;7.47;;;;;;;22.93;58.84;97338.00;4875624;28;20202;-86
2023/09/09 07:03:24;;;;;;;8.50;7.70;;;;;;;23.21;59.18;97356.91;4877857;28;20209;-85
2023/09/09 07:05:49;;;;;;;7.78;7.07;;;;;;;23.40;59.23;97353.81;4893884;28;20342;-85
2023/09/09 07:08:15;;;;;;;7.85;7.22;;;;;;;23.62;58.96;97357.25;4878255;28;20158;-86
2023/09/09 07:10:53;;;;;;;7.90;7.20;;;;;;;23.95;57.43;97351.22;4879866;28;20272;-85
2023/09/09 07:13:21;;;;;;;8.15;7.45;;;;;;;24.01;57.30;97361.31;4908579;28;20143;-86
2023/09/09 07:15:46;;;;;;;7.68;7.07;;;;;;;24.19;56.96;97363.81;4912209;28;20341;-86
2023/09/09 07:18:11;;;;;;;8.05;7.30;;;;;;;24.34;56.61;97363.19;4875094;28;20311;-86
2023/09/09 07:20:38;;;;;;;8.25;7.53;;;;;;;24.55;55.87;97368.44;4889231;28;20221;-85
2023/09/09 07:23:03;;;;;;;8.13;7.43;;;;;;;24.62;54.17;97351.94;4913118;28;20205;-86
2023/09/09 07:25:29;;;;;;;8.15;7.25;;;;;;;24.88;53.57;97359.56;4898367;28;20217;-86
2023/09/09 07:27:54;;;;;;;8.02;7.38;;;;;;;24.98;52.82;97339.72;4917881;28;20330;-86
2023/09/09 07:30:20;;;;;;;7.90;7.20;;;;;;;25.18;52.21;97346.78;4893469;28;20216;-86
2023/09/09 07:32:45;;;;;;;7.50;6.80;;;;;;;25.43;51.89;97360.13;4886511;28;20222;-85
2023/09/09 07:35:10;;;;;;;7.47;6.88;;;;;;;25.64;51.68;97359.94;4876171;28;20201;-85
2023/09/09 07:37:36;;;;;;;7.82;7.15;;;;;;;25.88;51.44;97369.72;4891936;28;20421;-85
2023/09/09 07:40:02;;;;;;;7.68;7.05;;;;;;;26.03;51.03;97362.13;4877717;28;20342;-84
2023/09/09 07:42:27;;;;;;;7.93;7.13;;;;;;;26.23;50.53;97361.13;4907125;28;20225;-85
2023/09/09 07:44:53;;;;;;;7.07;6.47;;;;;;;26.40;49.73;97369.94;4892915;28;20584;-85
2023/09/09 07:47:20;;;;;;;6.78;5.90;;;;;;;26.58;48.94;97365.81;4888470;28;20194;-85
2023/09/09 07:49:46;;;;;;;7.10;6.50;;;;;;;26.76;48.68;97355.56;4894375;28;20252;-86
2023/09/09 07:52:12;;;;;;;7.22;6.53;;;;;;;26.89;48.65;97338.31;4946862;28;20236;-86
2023/09/09 07:54:37;;;;;;;7.55;6.95;;;;;;;27.23;49.04;97361.94;4912397;28;20272;-86
2023/09/09 07:57:03;;;;;;;7.15;6.65;;;;;;;27.42;48.56;97355.91;4897995;28;20540;-86
2023/09/09 07:59:29;;;;;;;10.18;6.82;;;;;;;27.65;48.51;97358.66;4899179;28;20205;-86
2023/09/09 08:01:54;;;;;;;7.43;6.63;;;;;;;27.84;47.94;97352.50;4902402;28;20190;-86
2023/09/09 08:04:20;;;;;;;6.70;6.20;;;;;;;28.18;47.54;97366.16;4915074;28;20182;-86
2023/09/09 08:06:46;;;;;;;7.82;7.03;;;;;;;28.24;47.39;97369.31;4899602;28;20245;-86
2023/09/09 08:09:12;;;;;;;8.35;7.57;;;;;;;28.28;46.03;97373.59;4898881;28;20196;-86
2023/09/09 08:11:38;;;;;;;7.57;6.90;;;;;;;28.54;46.28;97366.75;4902356;28;20042;-86
2023/09/09 08:14:03;;;;;;;6.70;6.20;;;;;;;28.85;46.08;97381.81;4912386;28;20288;-86
2023/09/09 08:16:30;;;;;;;7.20;6.60;;;;;;;29.02;45.89;97371.75;4914550;28;20241;-86
2023/09/09 08:18:56;;;;;;;7.13;6.60;;;;;;;29.01;45.68;97360.22;4896298;28;20198;-85
2023/09/09 08:21:21;;;;;;;6.97;6.38;;;;;;;29.20;45.32;97380.84;4881582;28;20214;-86
2023/09/09 08:23:46;;;;;;;7.15;6.43;;;;;;;29.39;45.38;97371.09;4910136;28;20826;-86
2023/09/09 08:26:12;;;;;;;7.25;6.72;;;;;;;29.41;44.30;97364.25;4906677;28;20054;-86
2023/09/09 08:28:37;;;;;;;6.88;6.28;;;;;;;29.57;43.38;97374.03;4910637;28;20030;-84
2023/09/09 08:31:03;;;;;;;7.00;6.40;;;;;;;29.76;42.78;97370.41;4918569;28;20140;-83
2023/09/09 08:33:28;;;;;;;7.32;6.72;;;;;;;29.99;42.34;97379.13;4911332;28;20033;-84
2023/09/09 08:35:58;;;;;;;6.22;5.78;;;;;;;30.29;41.15;97386.31;4918759;28;20050;-84
2023/09/09 08:38:23;;;;;;;7.45;6.68;;;;;;;30.23;41.93;97369.00;4902536;28;20530;-84
2023/09/09 08:41:04;;;;;;;6.70;6.10;;;;;;;30.59;41.87;97374.72;4898724;28;20127;-87
2023/09/09 08:43:51;;;;;;;8.15;7.45;;;;;;;30.81;42.27;97384.50;4905987;28;20117;-85
2023/09/09 08:46:19;;;;;;;7.25;6.63;;;;;;;30.96;41.49;97379.22;4907541;28;20592;-84
2023/09/09 08:48:45;;;;;;;7.43;6.82;;;;;;;31.06;40.94;97380.47;4901976;28;20276;-84
2023/09/09 08:51:16;;;;;;;7.13;6.60;;;;;;;31.27;41.24;97375.19;4891144;28;20206;-85
2023/09/09 08:53:41;;;;;;;6.90;6.40;;;;;;;31.17;40.91;97354.38;4912783;28;20673;-85
2023/09/09 08:56:07;;;;;;;7.55;6.90;;;;;;;31.21;42.11;97370.56;4919570;28;20133;-85
2023/09/09 08:58:33;;;;;;;7.93;6.95;;;;;;;31.32;41.32;97377.50;4921509;28;20189;-87
2023/09/09 09:00:59;;;;;;;7.85;7.15;;;;;;;31.32;41.45;97379.44;4913967;28;20030;-85
2023/09/09 09:03:26;;;;;;;7.65;7.05;;;;;;;31.36;40.64;97372.19;4930176;28;20264;-85
2023/09/09 09:05:56;;;;;;;7.80;7.05;;;;;;;31.53;40.50;97381.47;4935131;28;20334;-85
2023/09/09 09:08:22;;;;;;;7.50;6.90;;;;;;;31.77;40.62;97380.03;4918526;28;20061;-87
2023/09/09 09:10:47;;;;;;;7.35;6.75;;;;;;;31.67;40.62;97384.25;4961024;23;20068;-87
2023/09/09 09:13:16;;;;;;;7.82;7.00;;;;;;;31.80;40.55;97387.34;5127650;23;20366;-85
2023/09/09 09:15:43;;;;;;;7.50;6.97;;;;;;;31.91;40.21;97374.72;4937645;28;20026;-85
2023/09/09 09:18:08;;;;;;;7.60;7.00;;;;;;;31.95;39.63;97385.47;4910840;28;20447;-85
2023/09/09 09:20:34;;;;;;;7.47;6.78;;;;;;;32.22;38.54;97383.25;4904227;28;20031;-86
2023/09/09 09:23:20;;;;;;;6.93;6.32;;;;;;;32.21;39.39;97383.66;4915541;28;20042;-85
2023/09/09 09:25:47;;;;;;;7.13;6.47;;;;;;;32.28;40.25;97379.03;4908601;28;20038;-86
2023/09/09 09:28:14;;;;;;;6.85;6.25;;;;;;;32.57;39.03;97379.03;4929689;28;20030;-85
2023/09/09 09:30:40;;;;;;;7.13;6.50;;;;;;;32.70;38.08;97370.59;4917260;28;20026;-86
2023/09/09 09:33:05;;;;;;;7.18;6.70;;;;;;;32.81;38.10;97384.84;4907191;28;20146;-85
2023/09/09 09:35:32;;;;;;;7.75;6.88;;;;;;;32.26;38.80;97370.56;4948251;28;20279;-87
2023/09/09 09:38:00;;;;;;;161.68;30.70;;;;;;;32.34;39.56;97371.34;4883437;28;20818;-86
2023/09/09 09:40:26;;;;;;;8.77;7.43;;;;;;;32.39;39.28;97375.56;4941901;28;20041;-84
2023/09/09 09:42:52;;;;;;;7.35;6.80;;;;;;;32.52;38.80;97379.44;4913103;28;20041;-85
2023/09/09 09:45:26;;;;;;;7.53;6.82;;;;;;;32.62;37.96;97377.94;4927922;28;20304;-85
2023/09/09 09:47:51;;;;;;;7.47;6.75;;;;;;;32.66;38.27;97382.16;4941164;28;20085;-85
2023/09/09 09:50:37;;;;;;;7.72;6.82;;;;;;;32.77;37.53;97376.75;4892373;28;20119;-85
2023/09/09 09:53:08;;;;;;;6.97;6.35;;;;;;;32.95;37.83;97370.56;4927193;28;20104;-86
2023/09/09 09:55:34;;;;;;;6.75;6.25;;;;;;;33.21;36.49;97374.78;4912678;28;20205;-85
2023/09/09 09:58:04;;;;;;;7.80;7.05;;;;;;;32.70;36.25;97363.28;4919048;28;20103;-85
2023/09/09 10:00:30;;;;;;;6.80;6.20;;;;;;;33.20;36.09;97371.31;4908319;28;20275;-84
2023/09/09 10:03:00;;;;;;;6.55;6.03;;;;;;;33.15;36.58;97360.16;4878299;28;20176;-85
2023/09/09 10:05:28;;;;;;;7.00;6.43;;;;;;;32.81;36.46;97353.25;4873492;28;20172;-84
2023/09/09 10:07:58;;;;;;;7.35;6.75;;;;;;;33.09;37.02;97375.16;4891906;28;20194;-88
2023/09/09 10:10:25;;;;;;;7.35;6.32;;;;;;;33.12;37.51;97366.28;5168606;22;21052;-85
2023/09/09 10:12:54;;;;;;;6.40;5.85;;;;;;;33.35;36.56;97366.66;5235786;23;20240;-86
2023/09/09 10:15:21;;;;;;;8.98;6.93;;;;;;;33.37;37.62;97358.94;5237345;22;20360;-87
2023/09/09 10:17:51;;;;;;;6.88;6.25;;;;;;;33.74;36.86;97373.06;5344423;22;20036;-86
2023/09/09 10:43:29;;;;;;;5.95;5.55;;;;;;;33.85;35.05;97368.38;4930333;28;20745;-84
2023/09/09 10:45:55;;;;;;;6.53;6.13;;;;;;;33.66;34.60;97371.56;4880253;28;20031;-85
2023/09/09 10:48:21;;;;;;;6.65;6.15;;;;;;;33.39;34.88;97372.78;4906903;28;20217;-85
2023/09/09 10:50:51;;;;;;;5.68;5.15;;;;;;;33.49;34.72;97378.56;4880362;28;20202;-83
2023/09/09 10:53:27;;;;;;;7.05;6.35;;;;;;;33.61;34.67;97366.56;4896548;28;20188;-86
2023/09/09 10:55:58;;;;;;;6.45;5.90;;;;;;;34.00;32.56;97369.09;4894066;28;20035;-83
2023/09/09 10:58:32;;;;;;;6.30;5.70;;;;;;;34.08;34.12;97375.19;4932932;28;20034;-87
2023/09/09 11:01:01;;;;;;;6.22;5.63;;;;;;;34.12;33.03;97371.31;5282703;22;20016;-85
2023/09/09 11:03:47;;;;;;;7.95;5.95;;;;;;;34.22;33.87;97377.81;5284469;23;20229;-84
2023/09/09 11:08:42;;;;;;;6.75;6.15;;;;;;;34.60;31.97;97379.84;4918173;28;20239;-83
2023/09/09 11:11:23;;;;;;;6.97;6.28;;;;;;;34.75;31.83;97370.47;4910581;28;20289;-84
2023/09/09 11:18:56;;;;;;;6.40;5.80;;;;;;;34.89;32.10;97356.84;4978156;22;20069;-86
2023/09/09 11:21:23;;;;;;;6.25;5.70;;;;;;;34.85;32.38;97371.56;4955241;28;20030;-86
2023/09/09 11:23:50;;;;;;;6.28;5.78;;;;;;;35.14;31.38;97360.44;4923241;28;20643;-85
2023/09/09 11:26:16;;;;;;;6.32;5.72;;;;;;;35.72;30.28;97364.06;4949997;28;20025;-85
2023/09/09 11:28:43;;;;;;;7.07;6.57;;;;;;;35.75;30.10;97352.41;4933696;28;20074;-86
2023/09/09 11:31:13;;;;;;;7.30;5.68;;;;;;;35.82;30.62;97370.50;4962984;28;20030;-85
2023/09/09 11:33:39;;;;;;;6.25;5.65;;;;;;;35.69;30.29;97354.00;4969849;28;20828;-84
2023/09/09 11:36:05;;;;;;;6.50;5.90;;;;;;;35.53;31.76;97354.59;4931716;28;20121;-84
2023/09/09 11:38:34;;;;;;;6.32;5.63;;;;;;;35.73;30.73;97362.09;4958381;28;20038;-85
2023/09/09 11:41:00;;;;;;;6.28;5.70;;;;;;;35.97;29.77;97355.59;4934425;28;20208;-86
2023/09/09 11:43:25;;;;;;;7.22;6.40;;;;;;;35.93;29.74;97365.69;4963391;28;20301;-85
2023/09/09 11:45:51;;;;;;;6.13;5.53;;;;;;;35.71;30.13;97354.34;4945193;28;20073;-85
2023/09/09 11:48:17;;;;;;;6.80;6.15;;;;;;;35.89;29.26;97365.00;4954440;28;20518;-85
2023/09/09 11:50:43;;;;;;;6.18;5.63;;;;;;;35.61;29.85;97341.72;4926456;28;20211;-85
2023/09/09 11:53:11;;;;;;;6.53;6.03;;;;;;;35.26;30.28;97347.16;4929359;28;20026;-83
2023/09/09 11:55:37;;;;;;;6.70;6.07;;;;;;;34.81;31.42;97351.91;4934740;28;20042;-85
2023/09/09 11:58:02;;;;;;;6.05;5.55;;;;;;;34.52;31.12;97350.19;4964101;28;20122;-85
2023/09/09 12:08:21;;;;;;;6.30;5.75;;;;;;;33.61;32.76;97337.63;5699801;22;20838;-86
2023/09/09 12:13:25;;;;;;;6.70;5.85;;;;;;;34.04;32.60;97342.78;5121648;22;20050;-82